»·PEaware :: N62DM KCMA-KVGT

N62DM :: KCMA-KVGT

FLIGHT INFORMATION

Flight Status: Arrived
Operator: Privately registered:
United States
More flights under this callsign
Pilot: Isaac R. (8401)
Aircraft: DIAMOND DA-42 TWINSTAR
(DA42)
More flights by this aircraft type
Origin: KCMA Camarillo
United States
Destination: KVGT North Las Vegas
United States
More flights between these airports :: More routes between these airports
Route: +FIM V386 PMD V12 BASAL V394 OASYS
File this flight plan on PilotEdge
Remarks: TYPE DA-62
Altitude:
(Current/Filed)
11,000ft
Speed:
(Current/Filed)
200kts
Departed: 09-Jan-19 04:44 PM
Arrived: 09-Jan-19 06:13 PM
Distance/Time
Traveled:
225nm/1:29
Distance/Time
To Go:
Arrived

Flight Plot

Page will automatically refresh every two minutes.

Flight plan parsing failed; only flown route is shown


Map Options




Map Legend


Flown Route
Filed Route
Departure Airport
Arrival Airport
Navaid (VOR, NDB)
Fix

Horizontal Profiles

Position Reports

Time Latitude Longitude Heading Altitude Ground
Speed
09-Jan-19 16:33 34.210414 -119.078332 180 78ft 0kts
09-Jan-19 16:34 34.210414 -119.078332 180 78ft 0kts
09-Jan-19 16:35 34.210414 -119.078332 180 78ft 0kts
09-Jan-19 16:36 34.210414 -119.078332 180 78ft 0kts
09-Jan-19 16:37 34.210414 -119.078332 180 78ft 0kts
09-Jan-19 16:38 34.210414 -119.078332 180 78ft 0kts
09-Jan-19 16:39 34.210414 -119.078332 180 78ft 0kts
09-Jan-19 16:40 34.210353 -119.078240 68 78ft 3kts
09-Jan-19 16:41 34.211184 -119.078159 270 78ft 5kts
09-Jan-19 16:42 34.211799 -119.084095 282 78ft 10kts
09-Jan-19 16:43 34.213579 -119.088937 273 79ft 76kts
09-Jan-19 16:44 34.217654 -119.121856 285 1160ft 110kts
09-Jan-19 16:45 34.227829 -119.155121 288 2648ft 102kts
09-Jan-19 16:46 34.248022 -119.149860 66 3804ft 108kts
09-Jan-19 16:47 34.261452 -119.116128 65 4947ft 112kts
09-Jan-19 16:48 34.275455 -119.081658 65 6113ft 116kts
09-Jan-19 16:49 34.289882 -119.046163 66 7269ft 119kts
09-Jan-19 16:50 34.304770 -119.009505 65 8437ft 122kts
09-Jan-19 16:51 34.320091 -118.971735 66 9564ft 129kts
09-Jan-19 16:52 34.336492 -118.931288 65 10791ft 139kts
09-Jan-19 16:53 34.357965 -118.877816 68 11024ft 203kts
09-Jan-19 16:54 34.380040 -118.812714 69 11024ft 210kts
09-Jan-19 16:55 34.402316 -118.747019 69 11024ft 210kts
09-Jan-19 16:56 34.424433 -118.681808 69 11023ft 209kts
09-Jan-19 16:57 34.446488 -118.616452 69 11022ft 209kts
09-Jan-19 16:58 34.468473 -118.551354 69 11031ft 208kts
09-Jan-19 16:59 34.490365 -118.486317 70 11034ft 208kts
09-Jan-19 17:00 34.512336 -118.421029 70 11034ft 208kts
09-Jan-19 17:01 34.534258 -118.355504 70 10991ft 212kts
09-Jan-19 17:02 34.556404 -118.289319 70 10979ft 209kts
09-Jan-19 17:03 34.578276 -118.223827 70 10978ft 208kts
09-Jan-19 17:04 34.599995 -118.158362 69 10975ft 214kts
09-Jan-19 17:05 34.622383 -118.091215 70 10986ft 213kts
09-Jan-19 17:06 34.635904 -118.021868 86 11001ft 211kts
09-Jan-19 17:07 34.643634 -117.951976 86 10986ft 205kts
09-Jan-19 17:08 34.651130 -117.883381 86 10984ft 203kts
09-Jan-19 17:09 34.658515 -117.815309 86 10983ft 203kts
09-Jan-19 17:10 34.665858 -117.747015 86 10984ft 203kts
09-Jan-19 17:11 34.673191 -117.678961 86 10986ft 203kts
09-Jan-19 17:12 34.680462 -117.610714 86 10985ft 206kts
09-Jan-19 17:13 34.687804 -117.541656 86 10979ft 204kts
09-Jan-19 17:14 34.695004 -117.473182 87 10991ft 208kts
09-Jan-19 17:15 34.702268 -117.403288 86 10994ft 210kts
09-Jan-19 17:16 34.709625 -117.333552 84 10985ft 210kts
09-Jan-19 17:17 34.716909 -117.264681 87 10981ft 201kts
09-Jan-19 17:18 34.723816 -117.196754 86 10993ft 207kts
09-Jan-19 17:19 34.730990 -117.127583 87 10983ft 202kts
09-Jan-19 17:20 34.737835 -117.060276 86 11022ft 204kts
09-Jan-19 17:21 34.744732 -116.991838 86 11017ft 203kts
09-Jan-19 17:22 34.751653 -116.923941 86 11013ft 203kts
09-Jan-19 17:23 34.762147 -116.856880 57 11005ft 205kts
09-Jan-19 17:24 34.801788 -116.806360 46 11006ft 212kts
09-Jan-19 17:25 34.842094 -116.755186 47 10997ft 201kts
09-Jan-19 17:26 34.880681 -116.706404 47 11005ft 201kts
09-Jan-19 17:27 34.919530 -116.657225 47 11002ft 199kts
09-Jan-19 17:28 34.957575 -116.608925 47 11007ft 198kts
09-Jan-19 17:29 34.995973 -116.560409 47 11010ft 205kts
09-Jan-19 17:30 35.035279 -116.510373 47 11002ft 200kts
09-Jan-19 17:31 35.073627 -116.461553 47 11006ft 198kts
09-Jan-19 17:32 35.111859 -116.412848 47 11016ft 200kts
09-Jan-19 17:34 35.150514 -116.363518 47 11007ft 198kts
09-Jan-19 17:35 35.188638 -116.314777 47 11005ft 198kts
09-Jan-19 17:36 35.226638 -116.266086 48 11011ft 198kts
09-Jan-19 17:37 35.264948 -116.216976 47 11016ft 202kts
09-Jan-19 17:38 35.303645 -116.167239 47 11009ft 200kts
09-Jan-19 17:39 35.341927 -116.118076 48 11002ft 198kts
09-Jan-19 17:40 35.380087 -116.068940 48 11011ft 204kts
09-Jan-19 17:41 35.418995 -116.018825 48 11003ft 200kts
09-Jan-19 17:42 35.457069 -115.969521 48 11004ft 197kts
09-Jan-19 17:43 35.494926 -115.920571 48 11013ft 202kts
09-Jan-19 17:44 35.533769 -115.870307 48 11006ft 200kts
09-Jan-19 17:45 35.571834 -115.820949 48 11015ft 199kts
09-Jan-19 17:46 35.609800 -115.771621 48 11015ft 198kts
09-Jan-19 17:47 35.647692 -115.722302 48 11009ft 197kts
09-Jan-19 17:48 35.685638 -115.672832 48 11016ft 205kts
09-Jan-19 17:49 35.724649 -115.621981 48 11007ft 200kts
09-Jan-19 17:49 35.756263 -115.580617 48 11024ft 202kts
09-Jan-19 17:51 35.801626 -115.521288 48 11023ft 203kts
09-Jan-19 17:52 35.840274 -115.470614 48 11024ft 205kts
09-Jan-19 17:52 35.877007 -115.436764 4 11028ft 198kts
09-Jan-19 17:53 35.931653 -115.430084 3 11027ft 196kts
09-Jan-19 17:55 35.994965 -115.422329 3 11012ft 197kts
09-Jan-19 17:55 36.040368 -115.416745 3 11021ft 199kts
09-Jan-19 17:56 36.092792 -115.390576 23 10250ft 198kts
09-Jan-19 17:58 36.150077 -115.360286 23 8645ft 180kts
09-Jan-19 17:58 36.187990 -115.341710 23 7492ft 172kts
09-Jan-19 17:59 36.229234 -115.321705 26 7009ft 144kts
09-Jan-19 18:00 36.267093 -115.302759 26 6994ft 145kts
09-Jan-19 18:01 36.304173 -115.284172 26 7013ft 145kts
09-Jan-19 18:02 36.343067 -115.282348 313 6714ft 157kts
09-Jan-19 18:03 36.374059 -115.322611 314 5741ft 163kts
09-Jan-19 18:04 36.376002 -115.366528 194 5194ft 134kts
09-Jan-19 18:05 36.344547 -115.355661 149 5192ft 109kts
09-Jan-19 18:06 36.323360 -115.327918 136 5201ft 114kts
09-Jan-19 18:07 36.299735 -115.299285 137 4848ft 134kts
09-Jan-19 18:08 36.270418 -115.268132 138 4026ft 136kts
09-Jan-19 18:09 36.247294 -115.239464 136 3190ft 106kts
09-Jan-19 18:10 36.225677 -115.212722 136 2643ft 106kts
09-Jan-19 18:11 36.207269 -115.189906 135 2209ft 46kts
09-Jan-19 18:12 36.204213 -115.187727 277 2208ft 11kts
09-Jan-19 18:13 36.204777 -115.191161 234 2208ft 13kts
09-Jan-19 18:14 36.204627 -115.193461 268 2208ft 1kts

Navigation Log

Ident Type
Flight plan parsing failed, navigation log unavailable